sensor_id;sensor_type;location;lat;lon;timestamp;pressure;altitude;pressure_sealevel;temperature;humidity
54876;BME280;40764;48.472;8.166;2023-07-13T00:05:37;98278.38;;;17.91;94.93
54876;BME280;40764;48.472;8.166;2023-07-13T00:11:38;98282.34;;;18.02;94.36
54876;BME280;40764;48.472;8.166;2023-07-13T00:17:39;98278.72;;;17.89;94.36
54876;BME280;40764;48.472;8.166;2023-07-13T00:23:41;98290.09;;;18.09;93.99
54876;BME280;40764;48.472;8.166;2023-07-13T00:29:41;98287.38;;;17.88;93.24
54876;BME280;40764;48.472;8.166;2023-07-13T00:35:42;98277.28;;;18.04;92.30
54876;BME280;40764;48.472;8.166;2023-07-13T00:41:43;98284.25;;;17.89;93.88
54876;BME280;40764;48.472;8.166;2023-07-13T00:47:44;98292.66;;;17.81;93.14
54876;BME280;40764;48.472;8.166;2023-07-13T00:53:45;98276.59;;;17.95;92.41
54876;BME280;40764;48.472;8.166;2023-07-13T00:59:48;98277.47;;;17.87;92.73
54876;BME280;40764;48.472;8.166;2023-07-13T01:05:50;98279.44;;;17.65;93.53
54876;BME280;40764;48.472;8.166;2023-07-13T01:11:50;98272.50;;;17.59;93.33
54876;BME280;40764;48.472;8.166;2023-07-13T01:17:50;98282.16;;;17.53;93.53
54876;BME280;40764;48.472;8.166;2023-07-13T01:23:51;98277.03;;;17.43;93.11
54876;BME280;40764;48.472;8.166;2023-07-13T01:29:53;98294.50;;;17.35;94.25
54876;BME280;40764;48.472;8.166;2023-07-13T01:35:53;98289.16;;;17.30;94.64
54876;BME280;40764;48.472;8.166;2023-07-13T01:41:53;98284.34;;;17.06;94.61
54876;BME280;40764;48.472;8.166;2023-07-13T01:47:54;98282.44;;;17.19;93.98
54876;BME280;40764;48.472;8.166;2023-07-13T01:53:54;98276.56;;;16.99;93.61
54876;BME280;40764;48.472;8.166;2023-07-13T01:59:54;98269.56;;;16.81;94.25
54876;BME280;40764;48.472;8.166;2023-07-13T02:05:55;98272.38;;;16.64;95.24
54876;BME280;40764;48.472;8.166;2023-07-13T02:11:55;98264.66;;;16.19;96.37
54876;BME280;40764;48.472;8.166;2023-07-13T02:17:55;98283.47;;;16.55;94.36
54876;BME280;40764;48.472;8.166;2023-07-13T02:23:56;98278.63;;;16.43;95.03
54876;BME280;40764;48.472;8.166;2023-07-13T02:29:57;98278.56;;;16.23;95.73
54876;BME280;40764;48.472;8.166;2023-07-13T02:35:58;98268.13;;;15.99;95.89
54876;BME280;40764;48.472;8.166;2023-07-13T02:41:59;98279.81;;;15.78;96.99
54876;BME280;40764;48.472;8.166;2023-07-13T02:48:00;98274.50;;;15.65;97.37
54876;BME280;40764;48.472;8.166;2023-07-13T02:54:01;98265.44;;;15.64;96.87
54876;BME280;40764;48.472;8.166;2023-07-13T03:00:03;98274.47;;;15.56;96.53
54876;BME280;40764;48.472;8.166;2023-07-13T03:06:07;98280.78;;;15.57;97.76
54876;BME280;40764;48.472;8.166;2023-07-13T03:12:08;98285.50;;;15.47;98.40
54876;BME280;40764;48.472;8.166;2023-07-13T03:18:09;98292.00;;;15.43;97.85
54876;BME280;40764;48.472;8.166;2023-07-13T03:24:09;98293.97;;;15.34;98.24
54876;BME280;40764;48.472;8.166;2023-07-13T03:30:10;98295.56;;;15.26;98.11
54876;BME280;40764;48.472;8.166;2023-07-13T03:36:14;98304.75;;;14.96;98.52
54876;BME280;40764;48.472;8.166;2023-07-13T03:42:17;98307.22;;;15.06;98.96
54876;BME280;40764;48.472;8.166;2023-07-13T03:48:17;98318.56;;;15.04;98.44
54876;BME280;40764;48.472;8.166;2023-07-13T03:54:18;98317.59;;;15.09;98.67
54876;BME280;40764;48.472;8.166;2023-07-13T04:00:19;98320.97;;;15.06;98.45
54876;BME280;40764;48.472;8.166;2023-07-13T04:06:22;98320.00;;;15.10;99.13
54876;BME280;40764;48.472;8.166;2023-07-13T04:12:24;98315.00;;;15.12;98.40
54876;BME280;40764;48.472;8.166;2023-07-13T04:18:24;98325.53;;;15.19;98.09
54876;BME280;40764;48.472;8.166;2023-07-13T04:24:24;98337.47;;;14.97;98.47
54876;BME280;40764;48.472;8.166;2023-07-13T04:30:25;98333.72;;;14.84;98.27
54876;BME280;40764;48.472;8.166;2023-07-13T04:36:26;98334.69;;;14.88;99.04
54876;BME280;40764;48.472;8.166;2023-07-13T04:42:29;98341.84;;;14.98;99.70
54876;BME280;40764;48.472;8.166;2023-07-13T04:48:29;98349.31;;;15.06;98.65
54876;BME280;40764;48.472;8.166;2023-07-13T04:54:30;98351.59;;;15.04;99.01
54876;BME280;40764;48.472;8.166;2023-07-13T05:00:31;98353.06;;;15.28;97.97
54876;BME280;40764;48.472;8.166;2023-07-13T05:06:31;98347.72;;;15.23;97.34
54876;BME280;40764;48.472;8.166;2023-07-13T05:12:32;98364.16;;;14.97;99.46
54876;BME280;40764;48.472;8.166;2023-07-13T05:18:32;98362.28;;;15.06;100.00
54876;BME280;40764;48.472;8.166;2023-07-13T05:24:32;98371.22;;;15.46;98.19
54876;BME280;40764;48.472;8.166;2023-07-13T05:30:33;98374.38;;;15.62;97.72
54876;BME280;40764;48.472;8.166;2023-07-13T05:36:34;98372.66;;;16.13;94.56
54876;BME280;40764;48.472;8.166;2023-07-13T05:42:34;98377.47;;;16.41;92.56
54876;BME280;40764;48.472;8.166;2023-07-13T05:48:34;98392.88;;;16.51;91.33
54876;BME280;40764;48.472;8.166;2023-07-13T05:54:35;98393.31;;;16.62;90.07
54876;BME280;40764;48.472;8.166;2023-07-13T06:00:35;98390.81;;;16.86;87.51
54876;BME280;40764;48.472;8.166;2023-07-13T06:06:35;98393.47;;;16.74;89.14
54876;BME280;40764;48.472;8.166;2023-07-13T06:12:36;98396.72;;;17.06;88.32
54876;BME280;40764;48.472;8.166;2023-07-13T06:18:37;98404.53;;;17.33;87.12
54876;BME280;40764;48.472;8.166;2023-07-13T06:24:37;98400.91;;;17.62;84.55
54876;BME280;40764;48.472;8.166;2023-07-13T06:30:38;98396.09;;;17.80;81.15
54876;BME280;40764;48.472;8.166;2023-07-13T06:36:39;98400.47;;;18.02;80.02
54876;BME280;40764;48.472;8.166;2023-07-13T06:42:40;98404.50;;;18.37;76.97
54876;BME280;40764;48.472;8.166;2023-07-13T06:48:40;98413.38;;;18.64;73.21
54876;BME280;40764;48.472;8.166;2023-07-13T06:54:40;98418.56;;;18.65;72.04
54876;BME280;40764;48.472;8.166;2023-07-13T07:00:41;98417.47;;;18.91;72.03
54876;BME280;40764;48.472;8.166;2023-07-13T07:06:41;98410.31;;;19.14;70.79
54876;BME280;40764;48.472;8.166;2023-07-13T07:12:42;98414.91;;;19.59;67.88
54876;BME280;40764;48.472;8.166;2023-07-13T07:18:42;98416.97;;;19.74;67.04
54876;BME280;40764;48.472;8.166;2023-07-13T07:24:42;98407.19;;;20.04;65.79
54876;BME280;40764;48.472;8.166;2023-07-13T07:30:46;98406.03;;;20.21;65.84
54876;BME280;40764;48.472;8.166;2023-07-13T07:36:47;98412.78;;;20.48;63.78
54876;BME280;40764;48.472;8.166;2023-07-13T07:42:47;98414.50;;;20.68;57.94
54876;BME280;40764;48.472;8.166;2023-07-13T07:48:47;98412.75;;;20.92;58.11
54876;BME280;40764;48.472;8.166;2023-07-13T07:54:48;98415.13;;;21.09;55.80
54876;BME280;40764;48.472;8.166;2023-07-13T08:00:48;98417.03;;;21.21;53.73
54876;BME280;40764;48.472;8.166;2023-07-13T08:06:48;98415.84;;;21.38;53.22
54876;BME280;40764;48.472;8.166;2023-07-13T08:12:49;98423.91;;;21.58;53.18
54876;BME280;40764;48.472;8.166;2023-07-13T08:18:49;98420.06;;;21.82;52.53
54876;BME280;40764;48.472;8.166;2023-07-13T08:24:50;98417.28;;;21.82;51.47
54876;BME280;40764;48.472;8.166;2023-07-13T08:31:01;98415.03;;;21.53;51.12
54876;BME280;40764;48.472;8.166;2023-07-13T08:37:02;98418.38;;;21.78;50.85
54876;BME280;40764;48.472;8.166;2023-07-13T08:43:02;98424.06;;;22.01;49.62
54876;BME280;40764;48.472;8.166;2023-07-13T08:49:08;98422.97;;;22.05;50.45
54876;BME280;40764;48.472;8.166;2023-07-13T08:55:18;98426.19;;;22.07;49.39
54876;BME280;40764;48.472;8.166;2023-07-13T09:01:28;98419.66;;;22.38;50.52
54876;BME280;40764;48.472;8.166;2023-07-13T09:07:56;98422.22;;;22.47;49.54
54876;BME280;40764;48.472;8.166;2023-07-13T09:20:35;98411.63;;;23.21;46.97
54876;BME280;40764;48.472;8.166;2023-07-13T09:26:38;98425.09;;;23.15;46.83
54876;BME280;40764;48.472;8.166;2023-07-13T09:32:40;98416.41;;;23.21;46.76
54876;BME280;40764;48.472;8.166;2023-07-13T09:38:43;98423.28;;;23.27;46.60
54876;BME280;40764;48.472;8.166;2023-07-13T09:50:48;98428.56;;;23.35;43.49
54876;BME280;40764;48.472;8.166;2023-07-13T09:56:54;98428.16;;;23.33;43.68
54876;BME280;40764;48.472;8.166;2023-07-13T10:03:18;98430.78;;;23.00;44.27
54876;BME280;40764;48.472;8.166;2023-07-13T10:09:18;98435.28;;;23.08;44.30
54876;BME280;40764;48.472;8.166;2023-07-13T10:15:22;98434.09;;;23.32;44.38
54876;BME280;40764;48.472;8.166;2023-07-13T10:21:28;98428.06;;;23.53;42.65
54876;BME280;40764;48.472;8.166;2023-07-13T10:27:35;98428.00;;;23.49;42.16
54876;BME280;40764;48.472;8.166;2023-07-13T10:33:35;98423.63;;;23.48;41.32
54876;BME280;40764;48.472;8.166;2023-07-13T10:39:37;98429.03;;;23.90;40.84
54876;BME280;40764;48.472;8.166;2023-07-13T10:45:38;98418.25;;;23.62;40.86
54876;BME280;40764;48.472;8.166;2023-07-13T10:51:39;98428.19;;;23.60;40.10
54876;BME280;40764;48.472;8.166;2023-07-13T10:57:42;98419.81;;;23.86;40.95
54876;BME280;40764;48.472;8.166;2023-07-13T11:09:43;98413.53;;;24.26;40.04
54876;BME280;40764;48.472;8.166;2023-07-13T11:15:48;98409.59;;;24.64;38.46
54876;BME280;40764;48.472;8.166;2023-07-13T11:34:14;98415.38;;;24.86;37.01
54876;BME280;40764;48.472;8.166;2023-07-13T11:40:15;98401.47;;;24.52;35.79
54876;BME280;40764;48.472;8.166;2023-07-13T11:46:20;98394.81;;;24.60;36.11
54876;BME280;40764;48.472;8.166;2023-07-13T11:52:23;98387.41;;;24.42;36.29
54876;BME280;40764;48.472;8.166;2023-07-13T11:58:27;98396.66;;;24.49;37.26
54876;BME280;40764;48.472;8.166;2023-07-13T12:04:31;98392.59;;;24.43;37.29
54876;BME280;40764;48.472;8.166;2023-07-13T12:10:32;98407.19;;;24.63;37.22
54876;BME280;40764;48.472;8.166;2023-07-13T12:16:33;98408.84;;;24.67;37.65
54876;BME280;40764;48.472;8.166;2023-07-13T12:22:34;98409.91;;;24.96;38.21
54876;BME280;40764;48.472;8.166;2023-07-13T12:28:51;98393.13;;;26.06;38.62
54876;BME280;40764;48.472;8.166;2023-07-13T12:35:13;98394.66;;;25.97;37.26
54876;BME280;40764;48.472;8.166;2023-07-13T12:41:14;98404.91;;;26.51;35.90
54876;BME280;40764;48.472;8.166;2023-07-13T12:47:16;98409.69;;;26.43;36.81
54876;BME280;40764;48.472;8.166;2023-07-13T12:53:22;98414.66;;;25.91;37.37
54876;BME280;40764;48.472;8.166;2023-07-13T12:59:25;98418.44;;;25.11;38.72
54876;BME280;40764;48.472;8.166;2023-07-13T13:05:30;98402.56;;;25.22;40.21
54876;BME280;40764;48.472;8.166;2023-07-13T13:11:31;98424.06;;;25.14;39.48
54876;BME280;40764;48.472;8.166;2023-07-13T13:17:31;98422.47;;;25.13;40.84
54876;BME280;40764;48.472;8.166;2023-07-13T13:23:32;98421.63;;;25.09;39.86
54876;BME280;40764;48.472;8.166;2023-07-13T13:29:34;98412.63;;;25.88;38.48
54876;BME280;40764;48.472;8.166;2023-07-13T13:35:35;98419.44;;;25.32;39.15
54876;BME280;40764;48.472;8.166;2023-07-13T13:41:36;98413.84;;;27.03;36.61
54876;BME280;40764;48.472;8.166;2023-07-13T13:47:36;98415.38;;;26.75;37.14
54876;BME280;40764;48.472;8.166;2023-07-13T13:53:36;98420.59;;;26.88;36.59
54876;BME280;40764;48.472;8.166;2023-07-13T13:59:39;98417.44;;;27.71;35.64
54876;BME280;40764;48.472;8.166;2023-07-13T14:05:42;98410.25;;;27.63;33.69
54876;BME280;40764;48.472;8.166;2023-07-13T14:11:43;98407.84;;;27.51;34.60
54876;BME280;40764;48.472;8.166;2023-07-13T14:17:44;98398.97;;;26.74;37.22
54876;BME280;40764;48.472;8.166;2023-07-13T14:23:46;98406.19;;;26.85;34.99
54876;BME280;40764;48.472;8.166;2023-07-13T14:29:47;98413.28;;;28.18;32.19
54876;BME280;40764;48.472;8.166;2023-07-13T14:35:49;98404.06;;;28.25;31.56
54876;BME280;40764;48.472;8.166;2023-07-13T14:41:52;98393.72;;;27.90;32.46
54876;BME280;40764;48.472;8.166;2023-07-13T14:47:53;98406.63;;;27.12;35.38
54876;BME280;40764;48.472;8.166;2023-07-13T14:53:53;98408.19;;;26.89;34.07
54876;BME280;40764;48.472;8.166;2023-07-13T14:59:54;98412.47;;;28.28;31.44
54876;BME280;40764;48.472;8.166;2023-07-13T15:05:54;98407.81;;;26.94;31.82
54876;BME280;40764;48.472;8.166;2023-07-13T15:11:56;98408.09;;;26.49;33.22
54876;BME280;40764;48.472;8.166;2023-07-13T15:17:56;98399.25;;;28.18;31.77
54876;BME280;40764;48.472;8.166;2023-07-13T15:23:56;98398.22;;;29.26;29.44
54876;BME280;40764;48.472;8.166;2023-07-13T15:29:57;98410.94;;;28.02;30.36
54876;BME280;40764;48.472;8.166;2023-07-13T15:35:57;98413.50;;;28.59;29.54
54876;BME280;40764;48.472;8.166;2023-07-13T15:41:59;98399.31;;;28.07;31.00
54876;BME280;40764;48.472;8.166;2023-07-13T15:47:59;98400.44;;;29.01;29.83
54876;BME280;40764;48.472;8.166;2023-07-13T15:54:02;98395.16;;;29.07;29.07
54876;BME280;40764;48.472;8.166;2023-07-13T16:00:14;98403.34;;;28.87;29.56
54876;BME280;40764;48.472;8.166;2023-07-13T16:06:24;98398.91;;;28.05;30.27
54876;BME280;40764;48.472;8.166;2023-07-13T16:12:26;98402.84;;;28.19;30.55
54876;BME280;40764;48.472;8.166;2023-07-13T16:18:27;98409.75;;;26.65;32.36
54876;BME280;40764;48.472;8.166;2023-07-13T16:24:27;98411.00;;;27.88;40.17
54876;BME280;40764;48.472;8.166;2023-07-13T16:30:30;98417.34;;;28.14;34.04
54876;BME280;40764;48.472;8.166;2023-07-13T16:36:31;98405.75;;;28.85;31.74
54876;BME280;40764;48.472;8.166;2023-07-13T16:42:33;98404.34;;;29.14;31.27
54876;BME280;40764;48.472;8.166;2023-07-13T16:48:34;98430.66;;;28.83;31.74
54876;BME280;40764;48.472;8.166;2023-07-13T16:54:36;98424.63;;;27.86;32.95
54876;BME280;40764;48.472;8.166;2023-07-13T17:00:38;98427.44;;;27.86;32.68
54876;BME280;40764;48.472;8.166;2023-07-13T17:06:38;98424.31;;;28.72;31.99
54876;BME280;40764;48.472;8.166;2023-07-13T17:12:40;98428.44;;;28.49;32.55
54876;BME280;40764;48.472;8.166;2023-07-13T17:18:40;98426.00;;;28.55;31.36
54876;BME280;40764;48.472;8.166;2023-07-13T17:24:41;98413.88;;;28.68;31.06
54876;BME280;40764;48.472;8.166;2023-07-13T17:30:44;98420.75;;;28.57;31.46
54876;BME280;40764;48.472;8.166;2023-07-13T17:36:44;98417.31;;;28.24;32.16
54876;BME280;40764;48.472;8.166;2023-07-13T17:42:45;98416.53;;;28.10;32.71
54876;BME280;40764;48.472;8.166;2023-07-13T17:48:46;98410.63;;;27.54;34.07
54876;BME280;40764;48.472;8.166;2023-07-13T17:54:48;98414.66;;;27.03;35.52
54876;BME280;40764;48.472;8.166;2023-07-13T18:00:50;98426.41;;;26.22;40.88
54876;BME280;40764;48.472;8.166;2023-07-13T18:06:51;98432.47;;;25.14;43.63
54876;BME280;40764;48.472;8.166;2023-07-13T18:12:56;98438.00;;;24.70;46.13
54876;BME280;40764;48.472;8.166;2023-07-13T18:18:57;98434.34;;;24.62;46.98
54876;BME280;40764;48.472;8.166;2023-07-13T18:25:01;98447.22;;;24.07;50.76
54876;BME280;40764;48.472;8.166;2023-07-13T18:31:03;98448.31;;;24.29;52.12
54876;BME280;40764;48.472;8.166;2023-07-13T18:37:19;98449.47;;;23.45;55.49
54876;BME280;40764;48.472;8.166;2023-07-13T18:43:23;98440.69;;;23.20;55.68
54876;BME280;40764;48.472;8.166;2023-07-13T18:49:23;98442.66;;;22.54;58.00
54876;BME280;40764;48.472;8.166;2023-07-13T18:55:24;98448.31;;;22.58;58.24
54876;BME280;40764;48.472;8.166;2023-07-13T19:01:30;98447.75;;;21.94;60.41
54876;BME280;40764;48.472;8.166;2023-07-13T19:07:31;98456.53;;;21.77;60.58
54876;BME280;40764;48.472;8.166;2023-07-13T19:13:32;98465.91;;;21.38;62.16
54876;BME280;40764;48.472;8.166;2023-07-13T19:19:35;98467.63;;;21.11;61.39
54876;BME280;40764;48.472;8.166;2023-07-13T19:25:36;98482.09;;;21.04;63.10
54876;BME280;40764;48.472;8.166;2023-07-13T19:31:37;98487.56;;;20.85;62.85
54876;BME280;40764;48.472;8.166;2023-07-13T19:37:38;98494.44;;;20.75;62.49
54876;BME280;40764;48.472;8.166;2023-07-13T19:43:39;98504.03;;;20.50;62.20
54876;BME280;40764;48.472;8.166;2023-07-13T19:49:41;98517.91;;;20.09;64.88
54876;BME280;40764;48.472;8.166;2023-07-13T19:55:43;98525.63;;;20.16;65.67
54876;BME280;40764;48.472;8.166;2023-07-13T20:01:43;98529.25;;;19.92;66.44
54876;BME280;40764;48.472;8.166;2023-07-13T20:07:46;98531.03;;;19.72;65.22
54876;BME280;40764;48.472;8.166;2023-07-13T20:13:49;98532.16;;;19.59;67.41
54876;BME280;40764;48.472;8.166;2023-07-13T20:19:50;98536.91;;;19.59;65.86
54876;BME280;40764;48.472;8.166;2023-07-13T20:25:50;98537.66;;;19.35;67.32
54876;BME280;40764;48.472;8.166;2023-07-13T20:31:50;98544.53;;;18.92;70.39
54876;BME280;40764;48.472;8.166;2023-07-13T20:37:51;98542.91;;;18.91;69.72
54876;BME280;40764;48.472;8.166;2023-07-13T20:43:52;98539.69;;;18.68;70.54
54876;BME280;40764;48.472;8.166;2023-07-13T20:49:52;98548.72;;;18.77;69.68
54876;BME280;40764;48.472;8.166;2023-07-13T20:55:53;98546.44;;;18.79;68.85
54876;BME280;40764;48.472;8.166;2023-07-13T21:01:53;98559.88;;;18.48;69.67
54876;BME280;40764;48.472;8.166;2023-07-13T21:07:54;98567.44;;;18.39;69.70
54876;BME280;40764;48.472;8.166;2023-07-13T21:13:55;98569.34;;;18.26;70.73
54876;BME280;40764;48.472;8.166;2023-07-13T21:19:55;98572.66;;;17.90;72.61
54876;BME280;40764;48.472;8.166;2023-07-13T21:25:57;98566.56;;;17.76;73.14
54876;BME280;40764;48.472;8.166;2023-07-13T21:31:57;98571.81;;;17.98;70.96
54876;BME280;40764;48.472;8.166;2023-07-13T21:37:59;98566.88;;;18.04;70.68
54876;BME280;40764;48.472;8.166;2023-07-13T21:44:01;98564.53;;;18.14;70.84
54876;BME280;40764;48.472;8.166;2023-07-13T21:50:05;98571.94;;;17.63;71.88
54876;BME280;40764;48.472;8.166;2023-07-13T21:56:08;98583.63;;;17.40;72.71
54876;BME280;40764;48.472;8.166;2023-07-13T22:02:11;98577.16;;;17.27;74.36
54876;BME280;40764;48.472;8.166;2023-07-13T22:08:12;98581.38;;;17.24;75.33
54876;BME280;40764;48.472;8.166;2023-07-13T22:14:13;98584.09;;;17.33;74.65
54876;BME280;40764;48.472;8.166;2023-07-13T22:20:21;98573.59;;;17.18;75.93
54876;BME280;40764;48.472;8.166;2023-07-13T22:26:28;98567.63;;;17.54;72.93
54876;BME280;40764;48.472;8.166;2023-07-13T22:32:28;98567.34;;;16.83;75.38
54876;BME280;40764;48.472;8.166;2023-07-13T22:38:30;98573.69;;;16.49;77.32
54876;BME280;40764;48.472;8.166;2023-07-13T22:44:32;98566.38;;;16.35;79.04
54876;BME280;40764;48.472;8.166;2023-07-13T22:50:34;98567.84;;;16.50;78.14
54876;BME280;40764;48.472;8.166;2023-07-13T22:56:34;98577.91;;;16.29;78.54
54876;BME280;40764;48.472;8.166;2023-07-13T23:02:35;98578.53;;;16.17;79.31
54876;BME280;40764;48.472;8.166;2023-07-13T23:08:36;98573.47;;;16.02;80.83
54876;BME280;40764;48.472;8.166;2023-07-13T23:14:39;98561.47;;;16.06;80.72
54876;BME280;40764;48.472;8.166;2023-07-13T23:20:39;98565.84;;;15.99;81.30
54876;BME280;40764;48.472;8.166;2023-07-13T23:26:40;98555.66;;;15.99;80.73
54876;BME280;40764;48.472;8.166;2023-07-13T23:32:41;98551.22;;;15.90;80.93
54876;BME280;40764;48.472;8.166;2023-07-13T23:38:42;98554.66;;;15.95;79.90
54876;BME280;40764;48.472;8.166;2023-07-13T23:44:42;98550.88;;;15.65;80.12
54876;BME280;40764;48.472;8.166;2023-07-13T23:50:43;98549.06;;;15.61;81.67
54876;BME280;40764;48.472;8.166;2023-07-13T23:56:44;98545.41;;;15.43;82.37
